Time;durP1;ratioP1;P1;durP2;ratioP2;P2;SDS_P1;SDS_P2;PMS_P1;PMS_P2;Temp;Humidity;BMP_temperature;BMP_pressure;BME280_temperature;BME280_humidity;BME280_pressure;Samples;Min_cycle;Max_cycle;Signal;HPM_P1;HPM_P2
2022/06/03 00:01:21;;;;;;;4.80;3.80;;;;;;;19.28;75.67;100275.28;5026959;28;20045;-84
2022/06/03 00:04:07;;;;;;;5.00;3.95;;;;;;;19.24;76.00;100285.97;5021833;28;20096;-84
2022/06/03 00:06:54;;;;;;;6.38;3.70;;;;;;;19.21;76.49;100292.56;4989152;28;21438;-85
2022/06/03 00:09:19;;;;;;;5.07;4.00;;;;;;;19.17;77.52;100289.19;5009025;28;20042;-84
2022/06/03 00:11:45;;;;;;;4.95;4.00;;;;;;;19.13;77.97;100291.41;5008847;28;20029;-84
2022/06/03 00:14:51;;;;;;;4.60;3.90;;;;;;;19.10;77.68;100290.38;5008285;28;20411;-84
2022/06/03 00:17:42;;;;;;;5.23;3.97;;;;;;;19.10;77.74;100298.03;4998209;28;20033;-86
2022/06/03 00:20:26;;;;;;;4.10;3.70;;;;;;;19.12;77.33;100295.53;4990297;28;20492;-86
2022/06/03 00:22:54;;;;;;;5.05;3.70;;;;;;;19.14;77.71;100307.03;5007411;28;20042;-86
2022/06/03 00:25:23;;;;;;;5.68;4.00;;;;;;;19.10;78.47;100306.47;5008340;28;20045;-86
2022/06/03 00:28:03;;;;;;;6.30;4.18;;;;;;;19.03;78.57;100310.47;4991148;28;20519;-85
2022/06/03 00:30:39;;;;;;;6.90;3.80;;;;;;;18.96;79.92;100310.09;5007732;28;20042;-85
2022/06/03 00:33:13;;;;;;;4.63;3.90;;;;;;;18.86;80.31;100306.63;5008176;28;20042;-86
2022/06/03 00:36:30;;;;;;;4.93;3.97;;;;;;;18.79;81.29;100304.22;5006212;28;20047;-85
2022/06/03 00:39:07;;;;;;;4.50;4.03;;;;;;;18.83;81.40;100301.22;4952951;28;20409;-85
2022/06/03 00:41:54;;;;;;;4.75;3.88;;;;;;;18.72;81.43;100306.66;5006970;28;20399;-85
2022/06/03 00:44:25;;;;;;;5.22;3.83;;;;;;;18.77;81.61;100311.56;5008136;28;20046;-86
2022/06/03 00:46:58;;;;;;;6.00;3.90;;;;;;;18.70;83.04;100320.41;4991604;28;20046;-85
2022/06/03 00:49:24;;;;;;;;;;;;;;;18.63;84.02;100316.75;4989060;28;20050;-85
2022/06/03 00:51:58;;;;;;;5.65;4.60;;;;;;;18.53;84.91;100329.31;5009110;28;20009;-85
2022/06/03 00:54:48;;;;;;;7.15;4.55;;;;;;;18.38;87.46;100331.34;5005990;28;20046;-85
2022/06/03 00:57:20;;;;;;;4.67;4.27;;;;;;;18.27;89.04;100328.34;4989961;28;20034;-85
2022/06/03 01:00:17;;;;;;;5.43;4.10;;;;;;;18.28;87.94;100329.88;5003387;28;20519;-84
2022/06/03 01:03:34;;;;;;;5.55;4.53;;;;;;;18.20;88.25;100325.88;5000091;28;20041;-85
2022/06/03 01:06:23;;;;;;;4.38;3.97;;;;;;;18.17;88.04;100329.66;4975477;28;20057;-84
2022/06/03 01:09:13;;;;;;;4.78;4.15;;;;;;;18.19;87.03;100321.56;5002026;28;20046;-84
2022/06/03 01:12:06;;;;;;;5.10;4.15;;;;;;;18.16;86.55;100311.25;5008546;28;20116;-85
2022/06/03 01:14:43;;;;;;;7.13;4.43;;;;;;;18.07;88.07;100305.75;5008502;28;20038;-84
2022/06/03 01:17:12;;;;;;;5.95;4.55;;;;;;;18.03;87.69;100308.75;5008410;28;20048;-84
2022/06/03 01:20:07;;;;;;;6.43;4.50;;;;;;;17.89;87.87;100305.91;5009473;28;20558;-84
2022/06/03 01:22:57;;;;;;;5.88;4.30;;;;;;;17.99;87.76;100313.00;5006869;28;20046;-84
2022/06/03 01:26:13;;;;;;;6.40;4.40;;;;;;;17.97;87.96;100318.31;5008457;28;20133;-84
2022/06/03 01:28:48;;;;;;;5.55;4.30;;;;;;;17.88;88.30;100321.19;4977780;28;20053;-84
2022/06/03 01:31:58;;;;;;;8.00;4.70;;;;;;;17.86;88.46;100313.25;5005872;28;20046;-84
2022/06/03 01:34:30;;;;;;;5.20;4.57;;;;;;;17.84;88.54;100320.59;5004542;28;20038;-84
2022/06/03 01:37:18;;;;;;;5.90;4.53;;;;;;;17.79;89.31;100319.25;5005239;28;20061;-84
2022/06/03 01:39:47;;;;;;;5.22;4.28;;;;;;;17.73;89.35;100311.97;5007279;28;20046;-84
2022/06/03 01:42:15;;;;;;;6.20;4.30;;;;;;;17.68;89.32;100311.38;5008448;28;20034;-84
2022/06/03 01:45:19;;;;;;;6.18;4.85;;;;;;;17.64;90.48;100307.97;5008666;28;20533;-84
2022/06/03 01:47:56;;;;;;;7.05;5.10;;;;;;;17.58;92.25;100301.50;5006478;28;20046;-85
2022/06/03 01:51:09;;;;;;;5.88;4.35;;;;;;;17.53;93.41;100296.50;5008403;28;20045;-84
2022/06/03 01:54:22;;;;;;;6.63;4.82;;;;;;;17.53;94.39;100290.88;4954454;28;20129;-84
2022/06/03 01:57:06;;;;;;;5.53;5.03;;;;;;;17.50;93.54;100286.25;4973231;28;20058;-84
2022/06/03 01:59:31;;;;;;;;;;;;;;;17.39;95.14;100291.59;5011172;28;20045;-84
2022/06/03 02:02:25;;;;;;;5.82;4.85;;;;;;;17.40;94.16;100279.13;5011144;28;20374;-83
2022/06/03 02:05:07;;;;;;;6.03;4.72;;;;;;;17.46;94.42;100274.44;5004022;28;21154;-83
2022/06/03 02:07:57;;;;;;;6.55;5.35;;;;;;;17.48;94.06;100269.09;5013750;28;20097;-84
2022/06/03 02:10:36;;;;;;;7.15;5.50;;;;;;;17.46;95.35;100270.84;5032359;28;20045;-84
2022/06/03 02:13:27;;;;;;;7.30;5.47;;;;;;;17.45;96.26;100270.06;5006936;28;20520;-84
2022/06/03 02:16:30;;;;;;;8.48;5.97;;;;;;;17.43;96.77;100280.97;5030033;28;20053;-84
2022/06/03 02:19:16;;;;;;;6.82;5.55;;;;;;;17.42;97.19;100270.25;5030623;28;20100;-84
2022/06/03 02:21:44;;;;;;;6.43;5.82;;;;;;;17.33;98.36;100287.91;5030941;28;20034;-84
2022/06/03 02:24:30;;;;;;;8.70;6.20;;;;;;;17.24;98.88;100287.97;5024918;28;20026;-84
2022/06/03 02:27:04;;;;;;;6.90;5.80;;;;;;;17.14;99.21;100284.47;5031930;28;20160;-84
2022/06/03 02:32:58;;;;;;;8.00;5.43;;;;;;;17.04;99.53;100290.56;4995496;28;20752;-84
2022/06/03 02:35:46;;;;;;;6.25;5.43;;;;;;;16.99;99.44;100288.41;5025532;28;20744;-84
2022/06/03 02:38:36;;;;;;;8.13;6.20;;;;;;;16.98;100.00;100282.06;5025401;28;20038;-84
2022/06/03 02:41:16;;;;;;;8.00;6.18;;;;;;;16.91;100.00;100281.59;5027287;28;20056;-84
2022/06/03 02:44:02;;;;;;;7.72;6.68;;;;;;;16.89;100.00;100287.72;5027625;28;20041;-84
2022/06/03 02:46:30;;;;;;;8.75;5.93;;;;;;;16.90;100.00;100285.69;5010385;28;20542;-84
2022/06/03 02:49:30;;;;;;;8.82;6.10;;;;;;;16.91;100.00;100292.81;5028920;28;20033;-84
2022/06/03 02:52:11;;;;;;;7.50;6.25;;;;;;;16.78;100.00;100277.00;5025657;28;20049;-84
2022/06/03 02:54:55;;;;;;;7.07;5.68;;;;;;;16.81;100.00;100299.72;5027491;28;20044;-84
2022/06/03 02:57:35;;;;;;;6.70;5.60;;;;;;;16.75;100.00;100291.97;5030275;28;20044;-84
2022/06/03 03:00:19;;;;;;;7.53;5.70;;;;;;;16.82;100.00;100301.28;5012519;28;20061;-84
2022/06/03 03:02:57;;;;;;;6.38;5.78;;;;;;;16.81;100.00;100305.31;5027297;28;20046;-84
2022/06/03 03:05:44;;;;;;;6.65;5.68;;;;;;;16.76;100.00;100290.72;5013731;28;20050;-84
2022/06/03 03:08:49;;;;;;;6.30;5.68;;;;;;;16.71;100.00;100296.16;5007412;28;20546;-84
2022/06/03 03:11:53;;;;;;;6.70;5.50;;;;;;;16.67;100.00;100306.78;4993225;28;20045;-84
2022/06/03 03:14:43;;;;;;;7.23;5.53;;;;;;;16.70;100.00;100306.59;5006549;28;20116;-84
2022/06/03 03:17:24;;;;;;;7.07;5.95;;;;;;;16.72;100.00;100304.13;5009469;28;20304;-84
2022/06/03 03:20:05;;;;;;;7.32;6.22;;;;;;;16.77;100.00;100306.28;4991688;28;20077;-84
2022/06/03 03:23:03;;;;;;;8.07;6.50;;;;;;;16.78;100.00;100321.81;5004879;28;20038;-84
2022/06/03 03:25:41;;;;;;;7.15;6.20;;;;;;;16.79;100.00;100317.00;4991930;28;20085;-84
2022/06/03 03:28:25;;;;;;;7.95;6.50;;;;;;;16.79;100.00;100314.97;5007612;28;20101;-84
2022/06/03 03:31:17;;;;;;;6.80;6.13;;;;;;;16.78;100.00;100321.81;5008439;28;20045;-85
2022/06/03 03:34:04;;;;;;;7.53;6.18;;;;;;;16.83;100.00;100331.59;4978343;28;20043;-85
2022/06/03 03:36:44;;;;;;;8.02;6.20;;;;;;;16.81;100.00;100333.34;4988383;28;20557;-85
2022/06/03 03:39:28;;;;;;;6.65;6.05;;;;;;;16.81;100.00;100336.16;5008668;28;20399;-85
2022/06/03 03:42:17;;;;;;;;;;;;;;;16.83;100.00;100330.84;5010973;28;20434;-85
2022/06/03 03:44:43;;;;;;;6.95;5.95;;;;;;;16.86;100.00;100338.31;4982467;28;19976;-84
2022/06/03 03:47:49;;;;;;;7.57;6.00;;;;;;;16.92;100.00;100336.41;5008993;28;20049;-83
2022/06/03 03:50:33;;;;;;;6.70;6.05;;;;;;;16.96;100.00;100343.41;5004883;28;20050;-86
2022/06/03 03:53:29;;;;;;;9.85;7.15;;;;;;;16.99;100.00;100347.25;5005889;28;20092;-85
2022/06/03 03:56:31;;;;;;;7.70;6.82;;;;;;;17.02;100.00;100343.53;5008987;28;20049;-85
2022/06/03 03:59:18;;;;;;;7.30;6.60;;;;;;;16.98;100.00;100354.91;5004476;28;20427;-85
2022/06/03 04:02:28;;;;;;;8.55;6.60;;;;;;;16.99;100.00;100344.47;5009539;28;20510;-85
2022/06/03 04:05:15;;;;;;;8.82;6.95;;;;;;;17.04;100.00;100357.84;5007953;28;20503;-85
2022/06/03 04:08:25;;;;;;;10.35;7.00;;;;;;;17.09;100.00;100360.00;5006385;28;20046;-85
2022/06/03 04:11:15;;;;;;;8.30;7.00;;;;;;;17.17;100.00;100361.22;5003877;28;20049;-85
2022/06/03 04:14:02;;;;;;;7.90;6.47;;;;;;;17.30;100.00;100366.59;5029762;28;20100;-84
2022/06/03 04:16:59;;;;;;;7.43;6.47;;;;;;;17.42;100.00;100374.78;5011547;28;20073;-84
2022/06/03 04:19:37;;;;;;;9.20;6.00;;;;;;;17.52;100.00;100378.31;5008703;28;20069;-84
2022/06/03 04:22:45;;;;;;;9.07;6.63;;;;;;;17.63;100.00;100373.75;5026827;28;20080;-84
2022/06/03 04:25:28;;;;;;;8.55;6.55;;;;;;;17.68;100.00;100378.69;5029786;28;20056;-83
2022/06/03 04:28:45;;;;;;;8.02;6.15;;;;;;;17.73;100.00;100382.09;5029534;28;20041;-83
2022/06/03 04:31:29;;;;;;;8.65;6.40;;;;;;;17.76;99.47;100392.38;4997776;28;20717;-83
2022/06/03 04:34:10;;;;;;;8.30;6.53;;;;;;;17.83;99.00;100392.81;5025034;28;20125;-83
2022/06/03 04:36:48;;;;;;;6.97;6.25;;;;;;;17.91;98.53;100388.38;5026546;28;20620;-83
2022/06/03 04:39:22;;;;;;;6.97;5.70;;;;;;;17.98;99.31;100381.63;5030782;28;20053;-84
2022/06/03 04:42:26;;;;;;;7.20;6.10;;;;;;;18.04;97.87;100388.88;5036715;28;20060;-85
2022/06/03 04:45:44;;;;;;;6.95;5.95;;;;;;;18.10;97.90;100386.19;5011625;28;20478;-85
2022/06/03 04:48:36;;;;;;;9.93;6.25;;;;;;;18.15;98.43;100385.53;5024221;28;20034;-86
2022/06/03 04:51:08;;;;;;;9.02;5.53;;;;;;;18.21;98.47;100386.41;5018935;28;20049;-85
2022/06/03 04:53:56;;;;;;;8.13;6.00;;;;;;;18.27;98.80;100387.31;5024373;28;20123;-85
2022/06/03 04:56:39;;;;;;;6.97;6.22;;;;;;;18.33;99.16;100388.16;5021703;28;20128;-85
2022/06/03 04:59:14;;;;;;;;;;;;;;;18.39;98.97;100385.47;5022457;28;20045;-84
2022/06/03 05:01:59;;;;;;;10.15;8.45;;;;;;;18.48;100.00;100388.97;5022136;28;19917;-84
2022/06/03 05:04:40;;;;;;;10.93;9.15;;;;;;;18.60;99.99;100381.56;5009759;28;20506;-84
2022/06/03 05:07:25;;;;;;;10.57;9.20;;;;;;;18.73;98.67;100386.88;5002383;28;20029;-83
2022/06/03 05:09:59;;;;;;;7.60;6.90;;;;;;;18.84;99.09;100399.09;5027733;28;20434;-85
2022/06/03 05:12:49;;;;;;;8.85;6.68;;;;;;;18.97;97.67;100395.97;5023559;28;20554;-84
2022/06/03 05:15:52;;;;;;;8.30;7.00;;;;;;;19.07;97.00;100384.13;5021973;28;20049;-84
2022/06/03 05:18:24;;;;;;;11.93;8.88;;;;;;;19.23;95.56;100379.25;5028665;28;20402;-85
2022/06/03 05:21:22;;;;;;;8.13;6.82;;;;;;;19.38;95.09;100385.63;5029393;28;20084;-84
2022/06/03 05:24:18;;;;;;;7.10;5.88;;;;;;;19.51;93.48;100388.91;5025795;28;20268;-84
2022/06/03 05:26:46;;;;;;;8.15;6.50;;;;;;;19.67;93.36;100390.41;5029848;28;20045;-84
2022/06/03 05:29:47;;;;;;;8.63;5.97;;;;;;;19.81;92.23;100384.72;5028377;28;20073;-84
2022/06/03 05:32:39;;;;;;;8.02;6.38;;;;;;;19.98;91.26;100382.88;4975916;28;20056;-84
2022/06/03 05:35:10;;;;;;;8.23;6.28;;;;;;;20.18;89.63;100401.03;5006122;28;20041;-84
2022/06/03 05:38:00;;;;;;;7.15;5.32;;;;;;;20.30;82.82;100389.41;5024310;28;20030;-83
2022/06/03 05:40:37;;;;;;;6.28;4.90;;;;;;;20.59;80.33;100401.75;5025275;28;20136;-84
2022/06/03 05:43:19;;;;;;;5.13;4.28;;;;;;;20.74;75.49;100402.44;5022637;28;20362;-84
2022/06/03 05:46:06;;;;;;;5.25;4.18;;;;;;;20.91;70.20;100411.78;5013443;28;20136;-84
2022/06/03 05:48:56;;;;;;;5.18;3.85;;;;;;;21.05;73.34;100405.25;5012788;28;20041;-84
2022/06/03 05:51:44;;;;;;;5.47;4.20;;;;;;;21.40;71.39;100402.19;5013638;28;20045;-84
2022/06/03 05:54:31;;;;;;;5.03;3.90;;;;;;;21.59;69.68;100385.66;5029378;28;20037;-84
2022/06/03 05:57:06;;;;;;;5.35;3.92;;;;;;;21.92;69.11;100385.81;5030267;28;20425;-85
2022/06/03 06:00:06;;;;;;;6.00;4.07;;;;;;;22.12;67.66;100393.38;4996910;28;20045;-84
2022/06/03 06:02:57;;;;;;;6.22;4.05;;;;;;;22.40;66.05;100393.44;5028526;28;20052;-84
2022/06/03 06:05:26;;;;;;;4.28;3.75;;;;;;;22.23;66.04;100404.69;5024357;28;20057;-83
2022/06/03 06:08:03;;;;;;;5.38;3.95;;;;;;;22.32;67.46;100408.06;5012767;28;20046;-84
2022/06/03 06:10:48;;;;;;;5.20;3.90;;;;;;;22.49;66.59;100404.50;5013003;28;20080;-84
2022/06/03 06:13:40;;;;;;;6.05;3.80;;;;;;;22.71;66.74;100401.75;4995368;28;20460;-84
2022/06/03 06:16:24;;;;;;;6.93;3.90;;;;;;;22.80;66.71;100410.00;4995300;28;20515;-84
2022/06/03 06:19:05;;;;;;;7.15;4.10;;;;;;;22.88;64.34;100407.41;4995106;28;20046;-84
2022/06/03 06:21:55;;;;;;;5.93;3.80;;;;;;;22.89;64.99;100409.72;5011721;28;20046;-84
2022/06/03 06:24:39;;;;;;;5.63;4.18;;;;;;;23.02;65.40;100410.00;5011908;28;20140;-83
2022/06/03 06:27:32;;;;;;;6.25;3.80;;;;;;;23.15;64.21;100398.16;5012392;28;20555;-83
2022/06/03 06:30:02;;;;;;;6.33;3.90;;;;;;;22.90;64.28;100394.31;5012637;28;20097;-83
2022/06/03 06:32:37;;;;;;;4.78;3.75;;;;;;;23.20;64.75;100395.34;4994598;28;20288;-85
2022/06/03 06:35:39;;;;;;;5.80;3.92;;;;;;;23.43;63.65;100401.75;5012327;28;20038;-83
2022/06/03 06:38:26;;;;;;;6.20;4.00;;;;;;;23.53;64.19;100399.44;5012233;28;20064;-83
2022/06/03 06:41:17;;;;;;;5.65;3.90;;;;;;;23.68;62.00;100382.91;5012439;28;20050;-83
2022/06/03 06:43:51;;;;;;;4.47;3.67;;;;;;;23.89;60.19;100384.13;5011438;28;20042;-83
2022/06/03 06:46:32;;;;;;;5.82;4.15;;;;;;;24.10;59.62;100373.97;5012293;28;20049;-82
2022/06/03 06:49:06;;;;;;;4.53;3.95;;;;;;;24.23;58.51;100383.97;5011761;28;20065;-82
2022/06/03 06:51:58;;;;;;;5.97;4.43;;;;;;;24.05;58.76;100380.44;5011594;28;20133;-82
2022/06/03 06:54:52;;;;;;;5.82;3.90;;;;;;;24.12;60.08;100370.63;4994430;28;20120;-83
2022/06/03 06:57:28;;;;;;;5.32;3.95;;;;;;;24.05;61.09;100369.13;4994437;28;20054;-84
2022/06/03 07:00:12;;;;;;;4.82;4.20;;;;;;;24.12;60.98;100365.72;4993944;28;20109;-84
2022/06/03 07:02:49;;;;;;;5.90;4.50;;;;;;;24.34;60.25;100359.19;5009010;28;20097;-83
2022/06/03 07:05:52;;;;;;;5.82;4.35;;;;;;;24.42;60.42;100360.19;5018683;28;20125;-84
2022/06/03 07:08:29;;;;;;;6.07;3.95;;;;;;;24.24;60.26;100366.47;5027281;28;20506;-84
2022/06/03 07:11:08;;;;;;;6.15;3.97;;;;;;;24.62;60.46;100373.19;5031023;28;20056;-83
2022/06/03 07:13:42;;;;;;;5.13;4.07;;;;;;;24.52;58.41;100369.13;5031582;28;20045;-83
2022/06/03 07:16:15;;;;;;;6.90;3.90;;;;;;;24.36;58.88;100372.84;5013878;28;20673;-83
2022/06/03 07:21:31;;;;;;;6.03;4.32;;;;;;;24.51;59.64;100387.41;5031040;28;20584;-83
2022/06/03 07:24:05;;;;;;;7.13;4.13;;;;;;;24.29;58.27;100367.72;5030496;28;20477;-84
2022/06/03 07:26:39;;;;;;;17.30;4.88;;;;;;;24.49;58.33;100370.19;5006833;28;20037;-83
2022/06/03 07:29:22;;;;;;;5.68;4.00;;;;;;;24.57;57.85;100376.81;5013226;28;20041;-83
2022/06/03 07:32:02;;;;;;;9.70;4.50;;;;;;;24.69;58.26;100381.13;4994728;28;20116;-84
2022/06/03 07:34:46;;;;;;;12.63;4.45;;;;;;;24.96;56.37;100379.38;5013184;28;20041;-84
2022/06/03 07:37:20;;;;;;;4.50;3.92;;;;;;;25.08;55.04;100375.16;5012705;28;20114;-84
2022/06/03 07:39:51;;;;;;;67.65;7.75;;;;;;;25.52;52.13;100376.78;5030901;28;20119;-83
2022/06/03 07:42:42;;;;;;;34.08;5.72;;;;;;;25.42;51.98;100375.59;5012228;28;20041;-84
2022/06/03 07:45:32;;;;;;;4.93;3.88;;;;;;;25.38;52.23;100386.50;5012870;28;20500;-84
2022/06/03 07:47:59;;;;;;;5.50;3.97;;;;;;;25.20;51.97;100390.00;5030456;28;20056;-84
2022/06/03 07:50:26;;;;;;;5.28;3.88;;;;;;;25.45;50.77;100391.56;5009914;28;20045;-83
2022/06/03 07:52:59;;;;;;;5.05;3.95;;;;;;;25.53;47.95;100392.56;5005998;28;20048;-83
2022/06/03 07:55:26;;;;;;;4.95;4.10;;;;;;;25.56;48.99;100385.78;5011854;28;20054;-83
2022/06/03 07:57:56;;;;;;;4.55;4.15;;;;;;;25.90;46.33;100391.88;5023194;28;20037;-83
2022/06/03 08:00:23;;;;;;;6.57;4.53;;;;;;;26.15;47.70;100389.75;5029981;28;20745;-83
2022/06/03 08:03:05;;;;;;;4.50;4.03;;;;;;;26.33;46.76;100383.31;5029843;28;20033;-84
2022/06/03 08:05:31;;;;;;;5.03;3.73;;;;;;;26.42;47.10;100385.78;5030039;28;20072;-83
2022/06/03 08:10:57;;;;;;;7.20;3.80;;;;;;;26.54;44.78;100384.31;5029028;28;20052;-83
2022/06/03 08:13:39;;;;;;;5.80;3.80;;;;;;;26.51;45.10;100371.19;5030292;28;20487;-83
2022/06/03 08:16:08;;;;;;;3.80;3.40;;;;;;;26.66;44.43;100394.22;5023516;28;20136;-83
2022/06/03 08:18:40;;;;;;;14.25;4.90;;;;;;;26.92;44.67;100387.13;5011934;28;20038;-83
2022/06/03 08:21:19;;;;;;;6.72;3.45;;;;;;;27.08;44.80;100381.16;5021885;28;20037;-83
2022/06/03 08:23:45;;;;;;;6.07;3.67;;;;;;;27.19;42.91;100388.72;5029929;28;20033;-84
2022/06/03 08:26:13;;;;;;;7.32;4.07;;;;;;;26.72;42.53;100385.59;5012313;28;20053;-84
2022/06/03 08:28:44;;;;;;;6.40;4.00;;;;;;;26.10;45.39;100393.44;5011675;28;20112;-84
2022/06/03 08:31:10;;;;;;;4.55;4.05;;;;;;;25.95;46.56;100388.97;5030456;28;20103;-83
2022/06/03 08:33:47;;;;;;;4.25;3.70;;;;;;;25.98;45.83;100399.28;5029254;28;20037;-84
2022/06/03 08:36:16;;;;;;;7.55;4.10;;;;;;;26.35;45.60;100392.09;5012499;28;20034;-84
2022/06/03 08:38:49;;;;;;;7.00;3.45;;;;;;;26.39;44.34;100392.56;5012211;28;20171;-84
2022/06/03 08:41:17;;;;;;;5.53;3.58;;;;;;;26.57;44.91;100394.59;5012183;28;20129;-84
2022/06/03 08:44:01;;;;;;;4.35;3.30;;;;;;;26.88;45.27;100393.91;5029525;28;20053;-84
2022/06/03 08:46:28;;;;;;;6.25;4.22;;;;;;;26.65;44.08;100391.94;5024186;28;20462;-84
2022/06/03 08:49:03;;;;;;;5.53;4.00;;;;;;;26.75;45.56;100388.13;5011110;28;20041;-84
2022/06/03 08:51:38;;;;;;;4.38;3.88;;;;;;;26.82;44.09;100384.66;5006577;28;20038;-84
2022/06/03 08:54:12;;;;;;;5.88;3.50;;;;;;;27.03;43.79;100387.69;5012050;28;20124;-83
2022/06/03 08:56:39;;;;;;;5.40;3.80;;;;;;;26.81;43.76;100382.38;5029751;28;20045;-84
2022/06/03 08:59:17;;;;;;;5.13;3.72;;;;;;;26.88;43.49;100391.06;5011919;28;20080;-84
2022/06/03 09:02:03;;;;;;;4.72;3.92;;;;;;;27.14;42.86;100398.13;5011988;28;20029;-84
2022/06/03 09:04:33;;;;;;;7.90;4.03;;;;;;;27.38;42.36;100394.38;5005032;28;20049;-84
2022/06/03 09:07:07;;;;;;;4.75;3.65;;;;;;;26.80;41.82;100392.19;5032236;28;20808;-84
2022/06/03 09:09:42;;;;;;;12.55;4.47;;;;;;;26.89;43.19;100389.72;5026625;28;20510;-84
2022/06/03 09:12:29;;;;;;;14.88;4.35;;;;;;;26.93;43.04;100383.75;5033329;28;20049;-84
2022/06/03 09:15:00;;;;;;;16.08;4.65;;;;;;;27.24;42.93;100380.09;5033212;28;20076;-84
2022/06/03 09:17:41;;;;;;;20.45;5.28;;;;;;;27.50;42.06;100385.06;5015572;28;20055;-84
2022/06/03 09:20:19;;;;;;;40.13;6.03;;;;;;;27.58;41.66;100377.41;5015848;28;20045;-84
2022/06/03 09:22:47;;;;;;;6.57;3.60;;;;;;;27.12;39.55;100372.28;5026499;28;20068;-84
2022/06/03 09:25:15;;;;;;;5.00;3.30;;;;;;;26.86;40.31;100362.34;5033197;28;20045;-84
2022/06/03 09:27:41;;;;;;;5.85;3.97;;;;;;;27.36;41.66;100361.47;5015917;28;20563;-84
2022/06/03 09:30:09;;;;;;;6.25;3.72;;;;;;;27.78;38.78;100376.72;5033128;28;20522;-84
2022/06/03 09:32:41;;;;;;;4.88;3.60;;;;;;;27.82;38.12;100382.88;5015883;28;20497;-84
2022/06/03 09:35:09;;;;;;;6.55;3.40;;;;;;;27.49;39.96;100391.31;5015578;28;20037;-84
2022/06/03 09:37:58;;;;;;;6.60;3.60;;;;;;;27.67;38.37;100385.50;5015458;28;20215;-84
2022/06/03 09:40:29;;;;;;;8.93;3.55;;;;;;;28.01;39.76;100379.13;5032227;28;20037;-84
2022/06/03 09:43:03;;;;;;;10.65;3.72;;;;;;;28.38;38.78;100378.88;5031657;28;20486;-84
2022/06/03 09:45:29;;;;;;;4.90;3.30;;;;;;;28.61;38.50;100379.88;5031807;28;20041;-84
2022/06/03 09:47:54;;;;;;;5.85;3.53;;;;;;;28.87;36.31;100386.84;5016057;28;20052;-84
2022/06/03 09:50:23;;;;;;;4.00;3.00;;;;;;;29.02;36.46;100381.25;5015367;28;20052;-84
2022/06/03 09:52:49;;;;;;;6.22;3.30;;;;;;;28.79;36.20;100375.34;5015610;28;20386;-84
2022/06/03 09:55:27;;;;;;;4.95;3.40;;;;;;;28.57;36.82;100382.31;5014955;28;20093;-84
2022/06/03 09:57:54;;;;;;;4.72;3.25;;;;;;;28.60;36.50;100380.44;5026090;28;20076;-84
2022/06/03 10:00:22;;;;;;;6.50;3.25;;;;;;;28.80;36.85;100382.56;5032604;28;20056;-83
2022/06/03 10:02:48;;;;;;;4.05;3.28;;;;;;;28.96;36.23;100375.69;5030795;28;20075;-84
2022/06/03 10:05:16;;;;;;;5.47;3.65;;;;;;;29.24;35.94;100391.34;5017874;28;20494;-84
2022/06/03 10:07:43;;;;;;;7.53;4.28;;;;;;;28.63;37.07;100382.19;5013446;28;20495;-84
2022/06/03 10:12:56;;;;;;;8.88;4.13;;;;;;;28.94;37.60;100377.56;5032514;28;20041;-84
2022/06/03 10:15:38;;;;;;;4.28;3.53;;;;;;;28.64;37.67;100375.91;5032395;28;20041;-84
2022/06/03 10:18:39;;;;;;;4.22;3.38;;;;;;;28.51;36.48;100372.38;5024673;28;20037;-84
2022/06/03 10:21:05;;;;;;;3.92;3.25;;;;;;;28.26;37.31;100369.03;5020125;28;20513;-84
2022/06/03 10:23:41;;;;;;;6.10;3.60;;;;;;;28.32;38.40;100360.34;5014697;28;20038;-83
2022/06/03 10:26:07;;;;;;;5.35;3.22;;;;;;;28.36;38.28;100361.53;5011378;28;20041;-84
2022/06/03 10:28:39;;;;;;;7.70;3.35;;;;;;;28.47;38.08;100371.94;5010434;28;20394;-84
2022/06/03 10:31:13;;;;;;;4.07;3.67;;;;;;;28.63;37.44;100368.66;5031483;28;20045;-84
2022/06/03 10:33:39;;;;;;;5.05;3.38;;;;;;;28.26;37.94;100374.75;5031365;28;20359;-84
2022/06/03 10:36:05;;;;;;;7.47;3.50;;;;;;;28.59;37.57;100362.53;5014474;28;20431;-84
2022/06/03 10:38:33;;;;;;;6.05;3.72;;;;;;;28.24;37.18;100366.72;5032035;28;20068;-84
2022/06/03 10:41:09;;;;;;;6.65;3.40;;;;;;;28.23;37.86;100353.78;4998162;28;20049;-84
2022/06/03 10:43:36;;;;;;;3.60;3.22;;;;;;;28.73;37.30;100358.34;5031487;28;20131;-83
2022/06/03 10:46:18;;;;;;;4.13;3.10;;;;;;;29.24;36.57;100354.97;5030748;28;20049;-85
2022/06/03 10:48:45;;;;;;;5.70;3.42;;;;;;;28.90;36.15;100354.31;5014110;28;20049;-85
2022/06/03 11:02:36;;;;;;;5.47;3.08;;;;;;;29.61;36.58;100334.47;5025523;28;20048;-84
2022/06/03 11:05:13;;;;;;;6.13;3.20;;;;;;;29.93;36.11;100341.91;5021591;28;20492;-84
2022/06/03 11:07:42;;;;;;;4.07;2.90;;;;;;;29.91;34.99;100333.91;4994456;28;20037;-84
2022/06/03 11:10:15;;;;;;;3.60;2.83;;;;;;;29.96;34.43;100335.06;5002681;28;20441;-84
2022/06/03 11:12:42;;;;;;;3.88;3.08;;;;;;;29.96;34.42;100330.13;5005183;28;20038;-84
2022/06/03 11:15:44;;;;;;;4.25;2.83;;;;;;;29.76;34.11;100330.94;4988380;28;20054;-84
2022/06/03 11:18:29;;;;;;;6.35;3.03;;;;;;;29.80;36.02;100316.28;4929672;29;20516;-85
2022/06/03 11:20:56;;;;;;;4.07;3.20;;;;;;;29.99;35.25;100314.69;5000717;28;20049;-85
2022/06/03 11:23:22;;;;;;;4.20;3.08;;;;;;;29.80;33.95;100316.28;4989614;28;20058;-83
2022/06/03 11:26:00;;;;;;;4.50;2.90;;;;;;;29.79;34.26;100309.03;5007011;28;20452;-83
2022/06/03 11:28:32;;;;;;;3.42;2.75;;;;;;;29.46;34.36;100300.09;5004781;28;20037;-83
2022/06/03 11:31:06;;;;;;;5.13;3.22;;;;;;;29.36;35.01;100304.78;5003203;28;20042;-83
2022/06/03 11:34:02;;;;;;;3.63;2.85;;;;;;;29.63;35.82;100300.38;4985977;28;20046;-83
2022/06/03 11:36:41;;;;;;;4.82;2.90;;;;;;;29.76;34.76;100295.88;5007264;28;20204;-84
2022/06/03 11:39:13;;;;;;;3.55;2.88;;;;;;;29.63;34.28;100280.38;5006671;28;20048;-84
2022/06/03 11:41:43;;;;;;;4.72;2.92;;;;;;;29.62;34.70;100280.94;4987181;28;20104;-84
2022/06/03 11:47:57;;;;;;;4.60;3.03;;;;;;;28.85;35.26;100275.25;5009840;28;20057;-85
2022/06/03 11:50:26;;;;;;;6.07;3.40;;;;;;;28.77;35.97;100269.50;4999164;28;20038;-84
2022/06/03 11:52:53;;;;;;;3.35;2.95;;;;;;;28.87;36.07;100244.06;4992262;28;20037;-84
2022/06/03 11:55:20;;;;;;;5.60;3.17;;;;;;;28.99;35.93;100251.03;4993420;28;20049;-85
2022/06/03 11:58:11;;;;;;;3.95;3.05;;;;;;;29.58;35.94;100255.56;4992915;28;20215;-85
2022/06/03 12:00:48;;;;;;;3.17;2.60;;;;;;;29.77;35.38;100243.81;4987053;28;20101;-85
2022/06/03 12:03:25;;;;;;;3.00;2.70;;;;;;;30.10;34.70;100244.91;4981447;28;20037;-83
2022/06/03 12:05:59;;;;;;;5.35;2.88;;;;;;;30.17;34.16;100252.72;5010546;28;20064;-83
2022/06/03 12:08:34;;;;;;;4.97;2.70;;;;;;;30.20;33.96;100237.31;5003309;28;20444;-83
2022/06/03 12:11:09;;;;;;;4.35;2.47;;;;;;;30.13;33.37;100243.75;5006894;28;20111;-83
2022/06/03 12:13:35;;;;;;;5.85;3.20;;;;;;;30.21;33.97;100235.22;5019082;28;20085;-83
2022/06/03 12:16:10;;;;;;;3.83;2.78;;;;;;;30.74;33.15;100241.75;4992705;28;20088;-83
2022/06/03 12:18:37;;;;;;;4.85;2.70;;;;;;;30.14;33.22;100230.22;5020075;28;20041;-85
2022/06/03 12:21:38;;;;;;;4.35;2.67;;;;;;;30.33;33.60;100225.66;5022026;28;20127;-84
2022/06/03 12:24:19;;;;;;;6.25;2.90;;;;;;;30.48;33.76;100220.00;5021774;28;20045;-84
2022/06/03 12:26:46;;;;;;;3.65;3.00;;;;;;;30.56;33.09;100225.72;5028048;28;20069;-84
2022/06/03 12:29:29;;;;;;;5.32;2.80;;;;;;;30.62;32.92;100205.47;5011898;28;20053;-84
2022/06/03 12:31:54;;;;;;;3.92;2.90;;;;;;;30.57;33.58;100209.31;5004884;28;20050;-84
2022/06/03 12:34:26;;;;;;;3.42;2.33;;;;;;;30.03;33.18;100197.81;5012452;28;20033;-84
2022/06/03 12:37:14;;;;;;;5.47;2.50;;;;;;;29.73;34.67;100202.63;5025749;28;20570;-86
2022/06/03 12:40:25;;;;;;;4.55;2.90;;;;;;;29.53;35.47;100202.19;5009240;28;20057;-84
2022/06/03 12:42:51;;;;;;;5.10;3.13;;;;;;;29.82;35.10;100204.97;5017696;28;20557;-84
2022/06/03 12:45:32;;;;;;;5.10;2.80;;;;;;;29.72;34.86;100209.69;5024878;28;20049;-83
2022/06/03 12:47:57;;;;;;;4.05;2.80;;;;;;;29.02;36.39;100195.63;5018109;28;20052;-83
2022/06/03 12:50:36;;;;;;;4.07;2.72;;;;;;;29.03;36.37;100200.03;5025324;28;20110;-84
2022/06/03 12:53:26;;;;;;;4.82;2.88;;;;;;;29.07;37.61;100206.13;5025666;28;20136;-84